createdAt,value
2022-09-12T00:00:29.671Z,98.77
2022-09-12T00:01:30.515Z,99.13
2022-09-12T00:02:29.675Z,99.23
2022-09-12T00:03:29.653Z,99.02
2022-09-12T00:04:30.079Z,99.23
2022-09-12T00:05:29.624Z,99.59
2022-09-12T00:06:31.539Z,99.39
2022-09-12T00:07:29.622Z,99.49
2022-09-12T00:08:29.617Z,99.49
2022-09-12T00:09:29.624Z,99.39
2022-09-12T00:10:29.599Z,99.04
2022-09-12T00:11:29.592Z,98.98
2022-09-12T00:12:29.581Z,99.49
2022-09-12T00:13:29.570Z,99.54
2022-09-12T00:14:29.573Z,99.34
2022-09-12T00:15:29.554Z,98.93
2022-09-12T00:16:30.609Z,98.43
2022-09-12T00:17:29.552Z,98.52
2022-09-12T00:18:29.535Z,98.63
2022-09-12T00:19:29.541Z,98.52
2022-09-12T00:20:29.517Z,98.07
2022-09-12T00:21:29.506Z,98.18
2022-09-12T00:22:29.512Z,97.97
2022-09-12T00:23:29.496Z,97.66
2022-09-12T00:24:29.485Z,97.46
2022-09-12T00:25:29.484Z,97.56
2022-09-12T00:26:29.470Z,97.66
2022-09-12T00:27:29.461Z,97.87
2022-09-12T00:28:29.450Z,97.56
2022-09-12T00:29:29.445Z,97.87
2022-09-12T00:31:29.426Z,98.07
2022-09-12T00:32:29.210Z,98.07
2022-09-12T00:33:30.077Z,98.58
2022-09-12T00:34:29.195Z,97.97
2022-09-12T00:35:29.190Z,98.07
2022-09-12T00:36:29.178Z,97.82
2022-09-12T00:37:30.261Z,97.82
2022-09-12T00:38:30.253Z,97.52
2022-09-12T00:39:30.306Z,97.52
2022-09-12T00:40:30.248Z,96.91
2022-09-12T00:41:30.231Z,96.70
2022-09-12T00:42:31.150Z,96.30
2022-09-12T00:43:30.221Z,95.98
2022-09-12T00:44:30.211Z,96.19
2022-09-12T00:45:30.237Z,95.48
2022-09-12T00:46:30.193Z,95.48
2022-09-12T00:47:30.185Z,95.68
2022-09-12T00:48:30.187Z,94.87
2022-09-12T00:49:30.185Z,95.37
2022-09-12T00:50:30.166Z,95.37
2022-09-12T00:51:30.161Z,95.68
2022-09-12T00:52:30.149Z,95.37
2022-09-12T00:53:30.139Z,95.48
2022-09-12T00:54:30.126Z,95.48
2022-09-12T00:55:30.122Z,95.43
2022-09-12T00:56:30.124Z,95.48
2022-09-12T00:57:30.118Z,95.64
2022-09-12T00:58:30.666Z,95.53
2022-09-12T00:59:30.095Z,95.48
2022-09-12T01:00:30.079Z,95.48
2022-09-12T01:01:32.614Z,95.68
2022-09-12T01:02:31.082Z,95.17
2022-09-12T01:03:30.062Z,95.32
2022-09-12T01:04:30.055Z,95.83
2022-09-12T01:05:30.047Z,96.14
2022-09-12T01:06:30.042Z,96.34
2022-09-12T01:07:30.045Z,96.84
2022-09-12T01:08:30.020Z,96.64
2022-09-12T01:09:30.024Z,97.36
2022-09-12T01:10:30.012Z,97.20
2022-09-12T01:11:30.000Z,97.20
2022-09-12T01:12:29.990Z,97.97
2022-09-12T01:13:29.985Z,97.71
2022-09-12T01:14:29.985Z,97.91
2022-09-12T01:15:29.965Z,97.71
2022-09-12T01:16:29.976Z,97.61
2022-09-12T01:17:29.949Z,97.81
2022-09-12T01:18:29.945Z,97.40
2022-09-12T01:19:29.936Z,98.52
2022-09-12T01:20:29.921Z,98.88
2022-09-12T01:21:29.911Z,98.77
2022-09-12T01:22:29.902Z,99.08
2022-09-12T01:23:29.897Z,99.69
2022-09-12T01:24:29.893Z,99.59
2022-09-12T01:25:29.879Z,98.88
2022-09-12T01:26:29.872Z,99.29
2022-09-12T01:27:29.864Z,99.49
2022-09-12T01:28:29.860Z,99.59
2022-09-12T01:29:29.857Z,99.99
2022-09-12T01:30:29.844Z,99.79
2022-09-12T01:31:29.846Z,99.95
2022-09-12T01:32:29.854Z,99.99
2022-09-12T01:33:29.827Z,99.99
2022-09-12T01:34:29.813Z,99.99
2022-09-12T01:35:29.820Z,99.99
2022-09-12T01:36:29.800Z,99.84
2022-09-12T01:37:29.793Z,99.54
2022-09-12T01:38:29.780Z,98.93
2022-09-12T01:39:29.777Z,99.74
2022-09-12T01:40:29.762Z,99.18
2022-09-12T01:41:29.756Z,99.89
2022-09-12T01:42:30.664Z,99.79
2022-09-12T01:43:29.742Z,99.58
2022-09-12T01:44:29.744Z,99.79
2022-09-12T01:45:29.798Z,99.63
2022-09-12T01:46:29.720Z,99.84
2022-09-12T01:47:29.715Z,99.68
2022-09-12T01:48:29.704Z,99.22
2022-09-12T01:49:29.710Z,99.22
2022-09-12T01:50:29.697Z,99.38
2022-09-12T01:51:29.679Z,98.77
2022-09-12T01:52:29.686Z,98.50
2022-09-12T01:53:29.670Z,98.61
2022-09-12T01:54:29.689Z,98.50
2022-09-12T01:55:29.656Z,98.50
2022-09-12T01:56:29.642Z,98.30
2022-09-12T01:57:29.642Z,98.56
2022-09-12T01:58:29.630Z,98.40
2022-09-12T01:59:29.625Z,97.79
2022-09-12T02:00:29.615Z,98.20
2022-09-12T02:01:29.705Z,98.20
2022-09-12T02:02:29.652Z,98.14
2022-09-12T02:03:29.594Z,98.24
2022-09-12T02:04:33.965Z,97.79
2022-09-12T02:05:30.611Z,98.04
2022-09-12T02:06:29.564Z,98.35
2022-09-12T02:07:29.556Z,98.55
2022-09-12T02:08:29.550Z,97.79
2022-09-12T02:09:29.546Z,97.83
2022-09-12T02:10:32.475Z,98.45
2022-09-12T02:11:30.562Z,98.45
2022-09-12T02:12:29.522Z,97.83
2022-09-12T02:13:29.517Z,98.86
2022-09-12T02:14:29.510Z,98.65
2022-09-12T02:15:30.098Z,98.86
2022-09-12T02:16:29.529Z,99.06
2022-09-12T02:17:29.476Z,98.45
2022-09-12T02:18:29.475Z,98.65
2022-09-12T02:19:29.473Z,98.55
2022-09-12T02:20:47.426Z,98.14
2022-09-12T02:21:31.447Z,98.14
2022-09-12T02:22:29.440Z,98.65
2022-09-12T02:23:29.440Z,98.75
2022-09-12T02:24:29.435Z,99.11
2022-09-12T02:25:29.429Z,99.62
2022-09-12T02:26:29.409Z,99.31
2022-09-12T02:27:29.401Z,99.99
2022-09-12T02:28:29.388Z,99.52
2022-09-12T02:29:29.392Z,99.21
2022-09-12T02:30:29.393Z,99.11
2022-09-12T02:31:29.375Z,99.52
2022-09-12T02:32:29.365Z,98.70
2022-09-12T02:33:29.355Z,98.90
2022-09-12T02:34:29.346Z,98.96
2022-09-12T02:35:29.355Z,98.96
2022-09-12T02:36:29.332Z,98.86
2022-09-12T02:37:29.312Z,99.21
2022-09-12T02:38:29.306Z,98.96
2022-09-12T02:39:29.296Z,99.06
2022-09-12T02:40:29.303Z,99.41
2022-09-12T02:41:29.278Z,99.41
2022-09-12T02:42:29.272Z,99.47
2022-09-12T02:43:29.267Z,99.82
2022-09-12T02:44:29.267Z,99.99
2022-09-12T02:45:29.307Z,99.93
2022-09-12T02:46:29.244Z,99.68
2022-09-12T02:47:29.236Z,99.99
2022-09-12T02:48:29.230Z,99.99
2022-09-12T02:49:29.219Z,99.99
2022-09-12T02:50:29.215Z,99.99
2022-09-12T02:51:29.210Z,99.99
2022-09-12T02:52:29.202Z,99.99
2022-09-12T02:53:29.200Z,99.99
2022-09-12T02:54:29.182Z,99.99
2022-09-12T02:55:29.175Z,99.99
2022-09-12T02:56:29.166Z,99.99
2022-09-12T02:57:29.174Z,99.99
2022-09-12T02:58:29.165Z,99.99
2022-09-12T02:59:29.148Z,99.99
2022-09-12T03:00:29.132Z,99.99
2022-09-12T03:01:29.168Z,99.99
2022-09-12T03:02:29.155Z,99.99
2022-09-12T03:03:29.110Z,99.99
2022-09-12T03:04:29.102Z,99.99
2022-09-12T03:05:29.096Z,99.99
2022-09-12T03:06:29.097Z,99.99
2022-09-12T03:07:29.085Z,99.99
2022-09-12T03:08:29.074Z,99.99
2022-09-12T03:09:29.068Z,99.99
2022-09-12T03:10:29.062Z,99.99
2022-09-12T03:11:29.065Z,99.99
2022-09-12T03:12:29.044Z,99.99
2022-09-12T03:13:29.032Z,99.99
2022-09-12T03:14:29.023Z,99.99
2022-09-12T03:15:29.020Z,99.99
2022-09-12T03:16:29.048Z,99.99
2022-09-12T03:17:29.010Z,99.99
2022-09-12T03:18:29.006Z,99.99
2022-09-12T03:19:28.980Z,99.99
2022-09-12T03:20:28.978Z,99.99
2022-09-12T03:21:28.972Z,99.99
2022-09-12T03:22:28.959Z,99.99
2022-09-12T03:23:28.955Z,99.99
2022-09-12T03:24:28.940Z,99.99
2022-09-12T03:25:28.934Z,99.99
2022-09-12T03:26:28.928Z,99.99
2022-09-12T03:27:28.931Z,99.99
2022-09-12T03:28:28.972Z,99.99
2022-09-12T03:29:28.902Z,99.99
2022-09-12T03:30:28.940Z,99.99
2022-09-12T03:31:28.892Z,99.99
2022-09-12T03:32:28.885Z,99.99
2022-09-12T03:33:28.875Z,99.99
2022-09-12T03:34:28.863Z,99.99
2022-09-12T03:35:28.846Z,99.99
2022-09-12T03:36:28.841Z,99.99
2022-09-12T03:37:28.830Z,99.99
2022-09-12T03:38:28.823Z,99.99
2022-09-12T03:39:28.815Z,99.99
2022-09-12T03:40:28.805Z,99.99
2022-09-12T03:41:28.797Z,99.99
2022-09-12T03:42:28.791Z,99.99
2022-09-12T03:43:28.790Z,99.99
2022-09-12T03:44:29.700Z,99.99
2022-09-12T03:45:28.820Z,99.99
2022-09-12T03:46:28.779Z,99.99
2022-09-12T03:47:28.748Z,99.99
2022-09-12T03:48:28.745Z,99.99
2022-09-12T03:49:28.735Z,99.99
2022-09-12T03:50:28.728Z,99.99
2022-09-12T03:51:29.627Z,99.99
2022-09-12T03:52:29.699Z,99.99
2022-09-12T03:53:28.704Z,99.99
2022-09-12T03:54:28.704Z,99.99
2022-09-12T03:55:28.694Z,99.99
2022-09-12T03:56:28.677Z,99.99
2022-09-12T03:57:28.676Z,99.99
2022-09-12T03:58:29.624Z,99.99
2022-09-12T03:59:28.661Z,99.99
2022-09-12T04:00:28.648Z,99.99
2022-09-12T04:01:28.700Z,99.99
2022-09-12T04:02:28.677Z,99.99
2022-09-12T04:03:28.629Z,99.99
2022-09-12T04:04:28.617Z,99.99
2022-09-12T04:05:28.609Z,99.99
2022-09-12T04:06:28.592Z,99.99
2022-09-12T04:07:28.587Z,99.99
2022-09-12T04:08:28.585Z,99.99
2022-09-12T04:09:28.589Z,99.99
2022-09-12T04:10:28.571Z,99.99
2022-09-12T04:11:28.556Z,99.99
2022-09-12T04:12:28.546Z,99.99
2022-09-12T04:13:29.145Z,99.99
2022-09-12T04:14:28.538Z,99.99
2022-09-12T04:15:28.532Z,99.99
2022-09-12T04:16:29.240Z,99.99
2022-09-12T04:17:28.510Z,99.99
2022-09-12T04:18:28.499Z,99.99
2022-09-12T04:19:28.502Z,99.99
2022-09-12T04:20:28.503Z,99.99
2022-09-12T04:21:28.485Z,99.99
2022-09-12T04:22:28.477Z,99.99
2022-09-12T04:23:28.466Z,99.99
2022-09-12T04:24:28.464Z,99.99
2022-09-12T04:25:28.458Z,99.99
2022-09-12T04:26:28.442Z,99.99
2022-09-12T04:27:28.444Z,99.99
2022-09-12T04:28:28.425Z,99.99
2022-09-12T04:29:28.412Z,99.99
2022-09-12T04:30:28.433Z,99.99
2022-09-12T04:31:28.398Z,99.99
2022-09-12T04:32:28.395Z,99.99
2022-09-12T04:33:28.385Z,99.99
2022-09-12T04:34:28.397Z,99.99
2022-09-12T04:35:28.367Z,99.99
2022-09-12T04:36:28.368Z,99.99
2022-09-12T04:37:28.355Z,99.99
2022-09-12T04:38:28.347Z,99.99
2022-09-12T04:39:28.339Z,99.99
2022-09-12T04:40:28.327Z,99.99
2022-09-12T04:41:28.327Z,99.99
2022-09-12T04:42:28.314Z,99.99
2022-09-12T04:43:28.305Z,99.99
2022-09-12T04:44:28.302Z,99.99
2022-09-12T04:45:28.274Z,99.99
2022-09-12T04:46:29.284Z,99.72
2022-09-12T04:47:28.270Z,99.99
2022-09-12T04:48:29.140Z,99.99
2022-09-12T04:49:28.255Z,99.99
2022-09-12T04:50:28.244Z,99.99
2022-09-12T04:51:28.246Z,99.99
2022-09-12T04:52:28.215Z,99.99
2022-09-12T04:53:29.222Z,99.99
2022-09-12T04:54:28.210Z,99.99
2022-09-12T04:55:28.216Z,99.99
2022-09-12T04:56:28.202Z,99.88
2022-09-12T04:57:29.141Z,99.99
2022-09-12T04:58:28.184Z,99.93
2022-09-12T04:59:28.184Z,99.72
2022-09-12T05:00:28.174Z,99.72
2022-09-12T05:01:28.243Z,99.99
2022-09-12T05:02:28.176Z,99.72
2022-09-12T05:03:28.153Z,99.99
2022-09-12T05:04:28.139Z,99.99
2022-09-12T05:05:28.136Z,99.99
2022-09-12T05:06:28.118Z,99.99
2022-09-12T05:07:28.138Z,99.99
2022-09-12T05:08:28.220Z,99.93
2022-09-12T05:09:28.101Z,99.99
2022-09-12T05:10:28.103Z,99.99
2022-09-12T05:11:41.257Z,99.99
2022-09-12T05:12:30.084Z,99.99
2022-09-12T05:13:28.063Z,99.99
2022-09-12T05:14:28.085Z,99.93
2022-09-12T05:15:28.058Z,99.99
2022-09-12T05:16:28.050Z,99.99
2022-09-12T05:17:28.033Z,99.99
2022-09-12T05:18:28.023Z,99.99
2022-09-12T05:19:28.026Z,99.99
2022-09-12T05:20:28.018Z,99.99
2022-09-12T05:21:28.011Z,99.99
2022-09-12T05:22:27.992Z,99.99
2022-09-12T05:23:27.986Z,99.99
2022-09-12T05:24:27.982Z,99.99
2022-09-12T05:25:27.971Z,99.99
2022-09-12T05:26:27.979Z,99.99
2022-09-12T05:27:27.958Z,99.99
2022-09-12T05:28:27.953Z,99.99
2022-09-12T05:29:27.957Z,99.99
2022-09-12T05:30:27.950Z,99.99
2022-09-12T05:31:27.932Z,99.99
2022-09-12T05:32:27.915Z,99.88
2022-09-12T05:33:27.907Z,99.78
2022-09-12T05:34:27.901Z,99.99
2022-09-12T05:35:27.887Z,99.68
2022-09-12T05:36:27.886Z,99.73
2022-09-12T05:37:27.869Z,99.73
2022-09-12T05:38:27.856Z,99.22
2022-09-12T05:39:27.849Z,99.16
2022-09-12T05:40:27.840Z,99.11
2022-09-12T05:41:27.841Z,99.27
2022-09-12T05:42:27.829Z,99.43
2022-09-12T05:43:27.845Z,99.37
2022-09-12T05:44:27.811Z,99.22
2022-09-12T05:45:27.802Z,99.99
2022-09-12T05:46:27.801Z,99.93
2022-09-12T05:47:27.795Z,99.11
2022-09-12T05:48:27.779Z,99.02
2022-09-12T05:49:27.777Z,99.06
2022-09-12T05:50:27.767Z,99.57
2022-09-12T05:51:27.759Z,99.78
2022-09-12T05:52:27.758Z,99.22
2022-09-12T05:53:27.736Z,99.73
2022-09-12T05:54:31.391Z,99.84
2022-09-12T05:55:28.718Z,99.43
2022-09-12T05:56:27.709Z,99.47
2022-09-12T05:57:27.704Z,99.52
2022-09-12T05:58:27.726Z,99.22
2022-09-12T05:59:27.695Z,99.47
2022-09-12T06:00:32.854Z,99.63
2022-09-12T06:01:29.707Z,99.63
2022-09-12T06:02:27.683Z,99.79
2022-09-12T06:03:27.690Z,99.38
2022-09-12T06:04:27.650Z,99.13
2022-09-12T06:05:27.645Z,98.72
2022-09-12T06:06:27.635Z,98.82
2022-09-12T06:07:27.621Z,98.16
2022-09-12T06:08:27.618Z,97.90
2022-09-12T06:09:27.603Z,97.75
2022-09-12T06:10:27.626Z,97.75
2022-09-12T06:11:27.592Z,96.78
2022-09-12T06:12:27.591Z,96.63
2022-09-12T06:13:27.576Z,96.88
2022-09-12T06:14:28.252Z,96.94
2022-09-12T06:15:27.564Z,96.73
2022-09-12T06:16:27.584Z,96.43
2022-09-12T06:17:27.546Z,96.53
2022-09-12T06:18:27.545Z,95.77
2022-09-12T06:19:27.525Z,95.97
2022-09-12T06:20:27.516Z,95.57
2022-09-12T06:21:27.519Z,95.16
2022-09-12T06:22:27.506Z,95.57
2022-09-12T06:23:28.250Z,95.36
2022-09-12T06:24:27.482Z,95.67
2022-09-12T06:25:27.482Z,95.62
2022-09-12T06:26:27.470Z,95.93
2022-09-12T06:27:27.477Z,94.71
2022-09-12T06:28:27.454Z,93.99
2022-09-12T06:29:27.447Z,93.89
2022-09-12T06:30:27.466Z,93.64
2022-09-12T06:31:27.433Z,93.59
2022-09-12T06:32:27.434Z,93.85
2022-09-12T06:33:27.417Z,93.85
2022-09-12T06:34:27.415Z,93.64
2022-09-12T06:35:27.403Z,93.54
2022-09-12T06:36:27.391Z,93.44
2022-09-12T06:37:27.395Z,94.11
2022-09-12T06:38:27.389Z,92.99
2022-09-12T06:39:27.381Z,92.68
2022-09-12T06:40:27.361Z,92.68
2022-09-12T06:41:27.359Z,92.38
2022-09-12T06:42:27.356Z,91.97
2022-09-12T06:43:27.333Z,92.58
2022-09-12T06:44:27.344Z,92.27
2022-09-12T06:45:27.320Z,91.77
2022-09-12T06:46:27.321Z,91.66
2022-09-12T06:47:27.304Z,92.11
2022-09-12T06:48:27.302Z,92.32
2022-09-12T06:49:27.278Z,92.68
2022-09-12T06:50:28.283Z,92.89
2022-09-12T06:51:27.289Z,92.27
2022-09-12T06:52:27.273Z,92.48
2022-09-12T06:53:27.260Z,91.97
2022-09-12T06:54:27.251Z,92.38
2022-09-12T06:55:27.923Z,92.38
2022-09-12T06:56:28.238Z,92.32
2022-09-12T06:57:27.231Z,92.42
2022-09-12T06:58:27.239Z,94.20
2022-09-12T06:59:27.248Z,93.59
2022-09-12T07:00:27.208Z,93.64
2022-09-12T07:01:27.251Z,94.09
2022-09-12T07:02:27.256Z,93.59
2022-09-12T07:03:27.179Z,93.99
2022-09-12T07:04:27.190Z,93.89
2022-09-12T07:05:27.163Z,94.05
2022-09-12T07:06:27.169Z,93.85
2022-09-12T07:07:27.169Z,93.64
2022-09-12T07:08:27.144Z,93.19
2022-09-12T07:09:27.143Z,93.74
2022-09-12T07:10:27.134Z,92.58
2022-09-12T07:11:27.119Z,92.18
2022-09-12T07:12:27.109Z,92.07
2022-09-12T07:13:27.114Z,92.58
2022-09-12T07:14:27.141Z,92.68
2022-09-12T07:15:27.682Z,92.07
2022-09-12T07:16:27.134Z,92.07
2022-09-12T07:17:27.082Z,91.97
2022-09-12T07:18:27.097Z,92.58
2022-09-12T07:19:27.072Z,92.33
2022-09-12T07:20:27.053Z,92.58
2022-09-12T07:21:27.124Z,92.23
2022-09-12T07:22:27.040Z,92.48
2022-09-12T07:23:27.031Z,92.23
2022-09-12T07:24:27.038Z,91.68
2022-09-12T07:25:27.012Z,90.97
2022-09-12T07:26:27.002Z,90.81
2022-09-12T07:27:26.995Z,91.52
2022-09-12T07:28:26.988Z,91.72
2022-09-12T07:29:42.365Z,91.42
2022-09-12T07:30:29.008Z,91.78
2022-09-12T07:31:26.963Z,90.86
2022-09-12T07:32:26.959Z,90.86
2022-09-12T07:33:26.949Z,90.25
2022-09-12T07:34:26.950Z,90.31
2022-09-12T07:35:26.934Z,89.50
2022-09-12T07:36:26.936Z,89.36
2022-09-12T07:37:26.939Z,88.85
2022-09-12T07:38:26.935Z,88.50
2022-09-12T07:39:26.910Z,88.30
2022-09-12T07:40:26.896Z,87.99
2022-09-12T07:41:26.918Z,87.79
2022-09-12T07:42:26.906Z,87.38
2022-09-12T07:43:26.921Z,87.08
2022-09-12T07:44:26.878Z,87.18
2022-09-12T07:45:26.854Z,87.18
2022-09-12T07:46:26.877Z,87.59
2022-09-12T07:47:27.002Z,87.08
2022-09-12T07:48:28.436Z,87.08
2022-09-12T07:49:26.827Z,86.83
2022-09-12T07:50:26.810Z,87.08
2022-09-12T07:51:26.811Z,87.04
2022-09-12T07:52:26.801Z,87.14
2022-09-12T07:53:26.786Z,87.34
2022-09-12T07:54:26.780Z,87.24
2022-09-12T07:55:26.774Z,87.24
2022-09-12T07:56:30.098Z,86.13
2022-09-12T07:57:27.766Z,86.98
2022-09-12T07:58:26.746Z,87.14
2022-09-12T07:59:50.843Z,86.94
2022-09-12T08:00:28.747Z,87.38
2022-09-12T08:01:26.814Z,87.08
2022-09-12T08:02:26.755Z,87.49
2022-09-12T08:03:26.712Z,87.38
2022-09-12T08:04:26.695Z,87.24
2022-09-12T08:05:26.687Z,87.24
2022-09-12T08:06:26.685Z,86.29
2022-09-12T08:07:26.683Z,85.88
2022-09-12T08:08:26.677Z,85.84
2022-09-12T08:09:26.662Z,85.13
2022-09-12T08:10:26.649Z,84.63
2022-09-12T08:11:26.651Z,84.38
2022-09-12T08:12:27.644Z,84.38
2022-09-12T08:13:26.625Z,83.57
2022-09-12T08:14:26.622Z,84.04
2022-09-12T08:15:26.607Z,83.73
2022-09-12T08:16:26.606Z,83.09
2022-09-12T08:17:26.599Z,83.09
2022-09-12T08:18:26.590Z,82.68
2022-09-12T08:19:26.583Z,82.17
2022-09-12T08:20:28.497Z,82.17
2022-09-12T08:21:27.565Z,82.17
2022-09-12T08:22:26.554Z,82.24
2022-09-12T08:23:26.548Z,81.93
2022-09-12T08:24:26.548Z,81.43
2022-09-12T08:25:26.533Z,81.43
2022-09-12T08:26:26.537Z,80.98
2022-09-12T08:27:26.537Z,80.54
2022-09-12T08:28:26.502Z,80.24
2022-09-12T08:29:26.492Z,79.93
2022-09-12T08:30:26.487Z,80.04
2022-09-12T08:31:26.482Z,79.29
2022-09-12T08:32:26.489Z,78.78
2022-09-12T08:33:26.468Z,78.88
2022-09-12T08:34:26.473Z,78.78
2022-09-12T08:35:26.445Z,78.64
2022-09-12T08:36:26.452Z,78.64
2022-09-12T08:37:27.287Z,78.34
2022-09-12T08:38:26.432Z,77.60
2022-09-12T08:39:26.422Z,77.76
2022-09-12T08:40:26.411Z,77.46
2022-09-12T08:41:27.277Z,76.45
2022-09-12T08:42:27.277Z,76.31
2022-09-12T08:43:26.395Z,75.51
2022-09-12T08:44:26.378Z,76.21
2022-09-12T08:45:26.371Z,75.84
2022-09-12T08:46:26.430Z,75.44
2022-09-12T08:47:26.369Z,75.95
2022-09-12T08:48:26.401Z,75.54
2022-09-12T08:49:26.343Z,75.84
2022-09-12T08:50:26.339Z,76.15
2022-09-12T08:51:26.329Z,76.35
2022-09-12T08:52:26.324Z,75.95
2022-09-12T08:53:26.316Z,76.48
2022-09-12T08:54:26.307Z,76.86
2022-09-12T08:55:26.299Z,76.86
2022-09-12T08:56:31.005Z,76.75
2022-09-12T08:57:28.288Z,76.79
2022-09-12T08:58:26.271Z,76.89
2022-09-12T08:59:26.285Z,77.29
2022-09-12T09:00:26.252Z,77.19
2022-09-12T09:01:26.830Z,77.29
2022-09-12T09:02:26.309Z,77.50
2022-09-12T09:03:26.234Z,77.60
2022-09-12T09:04:28.743Z,77.80
2022-09-12T09:05:27.238Z,77.39
2022-09-12T09:06:26.210Z,78.24
2022-09-12T09:07:26.204Z,78.24
2022-09-12T09:08:26.200Z,78.55
2022-09-12T09:09:26.189Z,77.94
2022-09-12T09:10:26.191Z,78.30
2022-09-12T09:11:26.174Z,78.14
2022-09-12T09:12:26.171Z,78.30
2022-09-12T09:13:26.156Z,78.20
2022-09-12T09:14:26.155Z,77.70
2022-09-12T09:15:26.163Z,77.36
2022-09-12T09:16:27.128Z,77.46
2022-09-12T09:17:26.147Z,77.06
2022-09-12T09:18:26.117Z,76.82
2022-09-12T09:19:26.110Z,77.02
2022-09-12T09:20:26.097Z,77.62
2022-09-12T09:21:26.104Z,76.82
2022-09-12T09:22:26.092Z,77.36
2022-09-12T09:23:26.085Z,77.42
2022-09-12T09:24:26.076Z,77.42
2022-09-12T09:25:26.100Z,77.32
2022-09-12T09:26:26.057Z,77.12
2022-09-12T09:27:40.022Z,77.28
2022-09-12T09:28:28.060Z,76.88
2022-09-12T09:29:26.033Z,76.98
2022-09-12T09:30:26.028Z,76.64
2022-09-12T09:31:26.114Z,75.94
2022-09-12T09:32:26.026Z,76.10
2022-09-12T09:33:26.008Z,76.20
2022-09-12T09:34:26.019Z,75.26
2022-09-12T09:35:27.789Z,75.70
2022-09-12T09:36:27.723Z,75.20
2022-09-12T09:37:26.809Z,75.40
2022-09-12T09:38:25.980Z,75.40
2022-09-12T09:39:26.328Z,75.84
2022-09-12T09:40:25.949Z,75.54
2022-09-12T09:41:25.940Z,76.04
2022-09-12T09:42:25.936Z,76.04
2022-09-12T09:43:25.932Z,76.34
2022-09-12T09:44:25.921Z,76.04
2022-09-12T09:45:25.912Z,76.20
2022-09-12T09:46:25.972Z,75.60
2022-09-12T09:47:25.891Z,75.46
2022-09-12T09:48:25.883Z,74.55
2022-09-12T09:49:25.884Z,74.86
2022-09-12T09:50:25.862Z,74.12
2022-09-12T09:51:26.863Z,74.12
2022-09-12T09:52:25.869Z,73.68
2022-09-12T09:53:25.839Z,73.65
2022-09-12T09:54:25.835Z,73.14
2022-09-12T09:55:25.830Z,72.14
2022-09-12T09:56:25.837Z,72.71
2022-09-12T09:57:25.840Z,71.47
2022-09-12T09:58:25.817Z,71.26
2022-09-12T09:59:25.792Z,70.56
2022-09-12T10:00:25.789Z,70.53
2022-09-12T10:01:25.801Z,69.72
2022-09-12T10:02:26.343Z,69.52
2022-09-12T10:03:25.807Z,69.69
2022-09-12T10:04:25.755Z,69.69
2022-09-12T10:05:25.748Z,69.56
2022-09-12T10:06:25.751Z,69.06
2022-09-12T10:07:25.730Z,67.92
2022-09-12T10:08:25.740Z,68.89
2022-09-12T10:09:25.717Z,67.79
2022-09-12T10:10:25.717Z,66.45
2022-09-12T10:11:25.700Z,66.42
2022-09-12T10:12:25.697Z,66.32
2022-09-12T10:13:25.685Z,65.31
2022-09-12T10:14:25.687Z,64.39
2022-09-12T10:15:25.683Z,64.48
2022-09-12T10:16:25.669Z,64.75
2022-09-12T10:17:25.663Z,64.06
2022-09-12T10:18:25.663Z,63.45
2022-09-12T10:19:25.644Z,63.65
2022-09-12T10:20:25.633Z,63.12
2022-09-12T10:21:25.620Z,62.52
2022-09-12T10:22:25.614Z,62.49
2022-09-12T10:23:26.231Z,62.59
2022-09-12T10:24:25.607Z,61.99
2022-09-12T10:25:25.592Z,61.69
2022-09-12T10:26:25.611Z,61.59
2022-09-12T10:27:25.581Z,61.59
2022-09-12T10:28:25.577Z,61.69
2022-09-12T10:29:25.594Z,61.07
2022-09-12T10:30:25.590Z,60.16
2022-09-12T10:31:25.550Z,60.03
2022-09-12T10:32:30.503Z,59.74
2022-09-12T10:33:27.527Z,58.64
2022-09-12T10:34:25.526Z,58.41
2022-09-12T10:35:25.517Z,58.58
2022-09-12T10:36:25.520Z,58.58
2022-09-12T10:37:25.494Z,58.88
2022-09-12T10:38:25.497Z,58.55
2022-09-12T10:39:25.502Z,58.65
2022-09-12T10:40:25.595Z,58.75
2022-09-12T10:41:26.378Z,57.93
2022-09-12T10:42:25.462Z,58.12
2022-09-12T10:43:28.309Z,58.25
2022-09-12T10:44:25.459Z,58.65
2022-09-12T10:45:25.439Z,58.65
2022-09-12T10:46:25.468Z,58.36
2022-09-12T10:47:25.429Z,58.85
2022-09-12T10:48:25.427Z,58.45
2022-09-12T10:49:25.415Z,58.06
2022-09-12T10:50:25.407Z,58.45
2022-09-12T10:51:25.394Z,58.65
2022-09-12T10:52:25.405Z,58.42
2022-09-12T10:53:25.387Z,58.33
2022-09-12T10:54:25.394Z,57.93
2022-09-12T10:55:25.380Z,57.33
2022-09-12T10:56:25.361Z,56.90
2022-09-12T10:57:25.373Z,57.70
2022-09-12T10:58:25.348Z,58.80
2022-09-12T10:59:27.319Z,58.53
2022-09-12T11:00:25.333Z,58.23
2022-09-12T11:01:25.353Z,58.92
2022-09-12T11:02:25.354Z,58.59
2022-09-12T11:03:25.304Z,58.12
2022-09-12T11:04:25.294Z,57.82
2022-09-12T11:05:25.291Z,58.15
2022-09-12T11:06:25.830Z,58.23
2022-09-12T11:07:25.282Z,58.12
2022-09-12T11:08:25.267Z,58.83
2022-09-12T11:09:26.265Z,59.12
2022-09-12T11:10:25.261Z,58.42
2022-09-12T11:11:25.244Z,58.20
2022-09-12T11:12:25.243Z,58.50
2022-09-12T11:13:25.239Z,58.10
2022-09-12T11:14:25.237Z,58.29
2022-09-12T11:15:26.752Z,58.29
2022-09-12T11:16:25.216Z,58.70
2022-09-12T11:17:25.198Z,58.50
2022-09-12T11:18:25.202Z,58.29
2022-09-12T11:19:25.183Z,58.92
2022-09-12T11:20:25.169Z,58.33
2022-09-12T11:21:25.173Z,58.33
2022-09-12T11:22:29.833Z,58.45
2022-09-12T11:23:27.167Z,58.33
2022-09-12T11:24:25.150Z,58.53
2022-09-12T11:25:25.153Z,57.13
2022-09-12T11:26:25.756Z,57.23
2022-09-12T11:27:25.122Z,57.93
2022-09-12T11:28:25.124Z,57.23
2022-09-12T11:29:26.113Z,57.65
2022-09-12T11:30:25.094Z,58.45
2022-09-12T11:31:25.088Z,58.36
2022-09-12T11:32:25.091Z,57.95
2022-09-12T11:33:25.067Z,57.26
2022-09-12T11:34:25.062Z,56.66
2022-09-12T11:35:25.052Z,55.43
2022-09-12T11:36:25.081Z,55.13
2022-09-12T11:37:25.759Z,57.13
2022-09-12T11:38:25.036Z,57.43
2022-09-12T11:39:25.038Z,57.43
2022-09-12T11:40:25.069Z,57.23
2022-09-12T11:41:25.011Z,56.93
2022-09-12T11:42:25.005Z,56.63
2022-09-12T11:43:24.989Z,57.65
2022-09-12T11:44:24.981Z,57.13
2022-09-12T11:45:24.975Z,56.93
2022-09-12T11:46:25.013Z,56.93
2022-09-12T11:47:24.987Z,57.00
2022-09-12T11:48:24.955Z,56.70
2022-09-12T11:49:24.954Z,55.71
2022-09-12T11:50:24.936Z,54.98
2022-09-12T11:51:24.930Z,55.18
2022-09-12T11:52:24.925Z,55.28
2022-09-12T11:53:24.911Z,55.78
2022-09-12T11:54:24.908Z,56.27
2022-09-12T11:55:24.902Z,55.85
2022-09-12T11:56:24.888Z,55.05
2022-09-12T11:57:24.898Z,56.08
2022-09-12T11:58:24.870Z,55.61
2022-09-12T11:59:24.917Z,56.40
2022-09-12T12:00:24.853Z,56.70
2022-09-12T12:01:24.856Z,56.30
2022-09-12T12:02:24.875Z,55.91
2022-09-12T12:03:24.863Z,56.08
2022-09-12T12:04:24.832Z,56.01
2022-09-12T12:05:24.813Z,55.68
2022-09-12T12:06:24.837Z,54.36
2022-09-12T12:07:24.823Z,54.36
2022-09-12T12:08:24.818Z,54.46
2022-09-12T12:09:24.784Z,54.36
2022-09-12T12:10:24.815Z,54.46
2022-09-12T12:11:25.770Z,54.53
2022-09-12T12:12:24.767Z,54.24
2022-09-12T12:13:24.750Z,53.83
2022-09-12T12:14:24.798Z,54.63
2022-09-12T12:15:24.737Z,54.11
2022-09-12T12:16:24.800Z,54.21
2022-09-12T12:17:24.723Z,54.50
2022-09-12T12:18:25.727Z,54.11
2022-09-12T12:19:24.715Z,54.21
2022-09-12T12:20:24.700Z,54.21
2022-09-12T12:21:24.706Z,54.08
2022-09-12T12:22:24.684Z,53.19
2022-09-12T12:23:24.682Z,53.19
2022-09-12T12:24:24.668Z,53.28
2022-09-12T12:25:29.449Z,53.16
2022-09-12T12:26:26.660Z,52.76
2022-09-12T12:27:24.693Z,52.94
2022-09-12T12:28:24.650Z,52.86
2022-09-12T12:29:24.632Z,52.84
2022-09-12T12:30:26.408Z,52.34
2022-09-12T12:31:24.709Z,52.44
2022-09-12T12:32:24.619Z,52.44
2022-09-12T12:33:24.601Z,52.44
2022-09-12T12:34:24.644Z,52.74
2022-09-12T12:35:24.582Z,52.54
2022-09-12T12:36:24.575Z,52.84
2022-09-12T12:37:24.574Z,52.54
2022-09-12T12:38:24.564Z,52.64
2022-09-12T12:39:24.563Z,53.14
2022-09-12T12:40:24.619Z,52.44
2022-09-12T12:41:24.547Z,52.84
2022-09-12T12:42:24.538Z,52.64
2022-09-12T12:43:24.529Z,53.26
2022-09-12T12:44:24.521Z,53.06
2022-09-12T12:45:24.538Z,53.06
2022-09-12T12:46:24.624Z,53.06
2022-09-12T12:47:24.490Z,53.19
2022-09-12T12:48:24.489Z,52.99
2022-09-12T12:49:24.483Z,53.58
2022-09-12T12:50:24.467Z,52.26
2022-09-12T12:51:24.474Z,52.67
2022-09-12T12:52:24.459Z,53.66
2022-09-12T12:53:24.448Z,52.86